Time;durP1;ratioP1;P1;durP2;ratioP2;P2;SDS_P1;SDS_P2;PMS_P1;PMS_P2;Temp;Humidity;BMP_temperature;BMP_pressure;BME280_temperature;BME280_humidity;BME280_pressure;Samples;Min_cycle;Max_cycle;Signal;HPM_P1;HPM_P2
2022/04/07 10:41:46;;;;;;;61.88;49.17;;;;;;;18.03;33.24;98024.38;5192723;27;20245;-67
2022/04/07 10:47:40;;;;;;;50.97;42.80;;;;;;;18.23;33.49;98024.38;5166404;22;20106;-67
2022/04/07 10:50:05;;;;;;;46.35;40.75;;;;;;;18.31;33.80;98016.13;5109328;28;20051;-66
2022/04/07 10:52:31;;;;;;;38.55;34.20;;;;;;;18.40;33.35;98020.22;5109787;28;20127;-67
2022/04/07 10:55:11;;;;;;;40.25;33.83;;;;;;;18.49;33.35;98020.00;5109619;28;20039;-67
2022/04/07 10:58:14;;;;;;;34.20;30.58;;;;;;;18.57;33.37;98017.91;5101480;28;20038;-66
2022/04/07 11:00:39;;;;;;;32.80;29.20;;;;;;;18.66;33.19;98015.00;5109326;28;20038;-66
2022/04/07 11:03:15;;;;;;;29.90;26.65;;;;;;;18.74;33.01;98015.59;5108271;28;20032;-67
2022/04/07 11:05:58;;;;;;;27.25;22.63;;;;;;;18.78;33.00;97999.91;5109559;28;20410;-67
2022/04/07 11:08:23;;;;;;;25.00;21.48;;;;;;;18.81;32.85;97994.13;5109621;28;20036;-67
2022/04/07 11:10:50;;;;;;;24.33;19.98;;;;;;;18.86;32.96;97993.50;5110056;28;20054;-67
2022/04/07 11:13:16;;;;;;;23.83;19.38;;;;;;;18.88;32.86;98000.31;5107529;28;20035;-67
2022/04/07 11:15:57;;;;;;;24.55;21.88;;;;;;;18.96;32.64;97987.72;5108051;28;20067;-66
2022/04/07 11:18:52;;;;;;;23.17;19.20;;;;;;;19.09;32.34;97979.59;5108249;28;20039;-66
2022/04/07 11:21:18;;;;;;;18.98;15.90;;;;;;;19.23;32.08;97976.84;5109028;28;20027;-67
2022/04/07 11:23:52;;;;;;;19.05;14.60;;;;;;;19.39;31.92;97968.28;5108619;28;20046;-67
2022/04/07 11:26:24;;;;;;;15.30;12.70;;;;;;;19.49;31.76;97970.50;5108395;28;20039;-67
2022/04/07 11:29:11;;;;;;;19.05;11.32;;;;;;;19.64;31.46;97978.22;5090869;28;20035;-67
2022/04/07 11:31:48;;;;;;;13.15;10.85;;;;;;;19.74;31.35;97977.72;5109155;28;20123;-67
2022/04/07 11:34:36;;;;;;;12.00;9.60;;;;;;;19.80;31.20;97972.31;5108381;28;20036;-66
2022/04/07 11:37:15;;;;;;;9.50;7.97;;;;;;;19.89;31.03;97972.88;5108388;28;20119;-67
2022/04/07 11:39:44;;;;;;;9.85;8.13;;;;;;;19.94;31.02;97982.94;5108287;28;20031;-66
2022/04/07 11:42:09;;;;;;;10.55;6.82;;;;;;;19.99;30.93;97974.25;5108424;28;20104;-66
2022/04/07 11:44:35;;;;;;;9.18;6.15;;;;;;;20.02;30.90;97979.16;5108876;28;20031;-65
2022/04/07 11:47:19;;;;;;;8.52;5.97;;;;;;;20.07;30.82;97977.47;5108668;28;20482;-66
2022/04/07 11:49:45;;;;;;;7.65;6.28;;;;;;;20.13;30.78;97970.41;5107846;28;20040;-66
2022/04/07 11:52:10;;;;;;;9.57;5.90;;;;;;;20.19;30.49;97982.13;5083582;28;20040;-66
2022/04/07 11:54:36;;;;;;;8.93;5.47;;;;;;;20.23;30.45;97986.00;5096151;28;20067;-67
2022/04/07 11:57:02;;;;;;;6.95;4.70;;;;;;;20.28;30.63;97973.56;5094423;28;20040;-64
2022/04/07 11:59:37;;;;;;;7.07;4.95;;;;;;;20.32;30.48;97971.25;5095094;28;20501;-67
2022/04/07 12:02:03;;;;;;;6.18;4.72;;;;;;;20.32;30.63;97963.19;5094187;28;20040;-64
2022/04/07 12:04:34;;;;;;;7.45;5.25;;;;;;;20.36;30.63;97971.63;5094846;28;20020;-66
2022/04/07 12:07:01;;;;;;;6.60;5.45;;;;;;;20.40;30.57;97980.88;5094704;28;20035;-66
2022/04/07 12:09:26;;;;;;;7.63;4.70;;;;;;;20.43;30.48;97962.44;5094402;28;20043;-65
2022/04/07 12:11:52;;;;;;;7.45;4.80;;;;;;;20.47;30.44;97984.31;5093379;28;20398;-66
2022/04/07 12:14:24;;;;;;;8.05;5.28;;;;;;;20.50;30.54;97983.06;5093602;28;20032;-67
2022/04/07 12:16:50;;;;;;;9.60;6.15;;;;;;;20.50;30.59;97958.88;5092791;28;20031;-67
2022/04/07 12:19:17;;;;;;;5.43;4.55;;;;;;;20.47;30.60;97975.44;5094556;28;20064;-66
2022/04/07 12:21:56;;;;;;;8.05;5.30;;;;;;;20.42;30.83;97968.84;5093532;28;20024;-66
2022/04/07 12:24:22;;;;;;;7.88;4.80;;;;;;;20.37;30.65;97965.19;5094285;28;20173;-67
2022/04/07 12:26:51;;;;;;;8.05;4.68;;;;;;;20.35;30.71;97972.66;5095064;28;20188;-66
2022/04/07 12:29:26;;;;;;;7.43;4.75;;;;;;;20.32;30.87;97973.94;5094323;28;20040;-67
2022/04/07 12:31:57;;;;;;;6.15;3.83;;;;;;;20.31;30.84;97968.75;5094453;28;20035;-67
2022/04/07 12:34:23;;;;;;;6.00;4.40;;;;;;;20.28;30.91;97956.63;5094567;28;20036;-68
2022/04/07 12:36:48;;;;;;;5.95;4.00;;;;;;;20.25;30.88;97963.25;5095033;28;20502;-67
2022/04/07 12:39:17;;;;;;;8.23;4.88;;;;;;;20.24;30.84;97950.03;5094229;28;20503;-67
2022/04/07 12:41:50;;;;;;;6.97;4.85;;;;;;;20.25;30.96;97955.19;5094411;28;20032;-66
2022/04/07 12:44:38;;;;;;;7.57;4.25;;;;;;;20.25;30.83;97946.31;5087509;28;20220;-66
2022/04/07 12:47:13;;;;;;;6.70;5.05;;;;;;;20.25;30.85;97949.00;5094228;28;20133;-68
2022/04/07 12:49:40;;;;;;;6.57;4.90;;;;;;;20.23;31.08;97943.03;5094067;28;20051;-66
2022/04/07 12:52:14;;;;;;;6.80;5.07;;;;;;;20.24;31.09;97944.66;5095107;28;20035;-66
2022/04/07 12:55:04;;;;;;;6.32;4.57;;;;;;;20.26;31.25;97947.94;5093615;28;20055;-67
2022/04/07 12:57:34;;;;;;;8.63;4.95;;;;;;;20.24;31.12;97940.13;5092979;28;20067;-67
2022/04/07 13:00:07;;;;;;;7.28;4.70;;;;;;;20.26;31.07;97937.22;5093570;28;20031;-66
2022/04/07 13:02:55;;;;;;;8.30;5.18;;;;;;;20.27;31.10;97934.31;5093221;28;20499;-67
2022/04/07 13:05:29;;;;;;;6.82;4.20;;;;;;;20.26;31.11;97926.47;5092690;28;20036;-68
2022/04/07 13:07:59;;;;;;;7.05;4.05;;;;;;;20.26;31.19;97927.31;5093941;28;20156;-68
2022/04/07 13:10:26;;;;;;;5.57;4.40;;;;;;;20.27;31.13;97922.75;5093489;28;20159;-65
2022/04/07 13:12:52;;;;;;;8.55;4.85;;;;;;;20.27;31.28;97926.25;5092467;28;20047;-66
2022/04/07 13:15:18;;;;;;;6.43;3.97;;;;;;;20.28;31.13;97927.06;5092723;28;20487;-67
2022/04/07 13:17:44;;;;;;;7.07;4.18;;;;;;;20.26;31.13;97924.63;5092786;28;20024;-66
2022/04/07 13:20:10;;;;;;;8.80;4.22;;;;;;;20.27;31.25;97918.22;5092900;28;20035;-65
2022/04/07 13:22:36;;;;;;;5.20;3.42;;;;;;;20.25;31.26;97920.28;5092475;28;20522;-67
2022/04/07 13:25:03;;;;;;;6.22;4.03;;;;;;;20.26;31.14;97913.03;5092768;28;20055;-67
2022/04/07 13:27:29;;;;;;;5.70;4.20;;;;;;;20.25;31.20;97908.72;5093209;28;20031;-68
2022/04/07 13:29:55;;;;;;;5.15;3.92;;;;;;;20.25;31.32;97909.56;5093306;28;20061;-68
2022/04/07 13:32:23;;;;;;;7.15;4.72;;;;;;;20.26;31.38;97911.19;5092940;28;20114;-67
2022/04/07 13:34:52;;;;;;;6.57;3.88;;;;;;;20.26;31.41;97903.13;5093237;28;20035;-67
2022/04/07 22:52:57;;;;;;;5.80;3.70;;;;;;;18.60;37.89;97781.75;5163327;27;20232;-66
2022/04/07 22:55:22;;;;;;;6.50;3.45;;;;;;;18.67;37.91;97778.22;5147410;27;20114;-67
2022/04/07 22:57:48;;;;;;;5.15;3.60;;;;;;;18.75;37.87;97784.16;5132179;27;20426;-66
2022/04/07 23:00:15;;;;;;;7.95;3.80;;;;;;;18.83;37.91;97777.69;5130987;27;20034;-67
2022/04/07 23:02:44;;;;;;;7.05;3.42;;;;;;;18.90;37.72;97775.78;5138748;27;20390;-67
2022/04/07 23:05:12;;;;;;;5.75;3.55;;;;;;;19.02;37.56;97783.16;5130121;27;20498;-66
2022/04/07 23:07:38;;;;;;;6.50;3.17;;;;;;;19.09;37.46;97770.50;5129853;27;20031;-64
2022/04/07 23:10:06;;;;;;;4.50;3.60;;;;;;;19.16;37.15;97760.56;5134439;27;20083;-67
2022/04/07 23:12:32;;;;;;;4.68;3.78;;;;;;;19.19;36.91;97776.19;5136553;27;20023;-66
2022/04/07 23:14:57;;;;;;;8.70;4.00;;;;;;;19.27;36.68;97774.28;5151268;27;20156;-65
2022/04/07 23:17:23;;;;;;;5.75;3.45;;;;;;;19.38;36.70;97778.91;5151274;27;20037;-65
2022/04/07 23:19:50;;;;;;;4.32;3.17;;;;;;;19.41;36.33;97769.63;5150971;27;20027;-65
2022/04/07 23:22:16;;;;;;;5.93;4.10;;;;;;;19.51;36.63;97765.34;5150779;27;20398;-65
2022/04/07 23:24:41;;;;;;;4.05;3.47;;;;;;;19.55;36.37;97763.06;5150523;27;20034;-66
2022/04/07 23:27:07;;;;;;;5.82;3.72;;;;;;;19.63;36.38;97761.97;5171422;27;20038;-65
2022/04/07 23:29:33;;;;;;;10.70;4.55;;;;;;;19.67;36.05;97761.28;5172780;27;20061;-64
2022/04/07 23:32:04;;;;;;;6.07;4.07;;;;;;;19.70;36.27;97765.38;5162346;27;20054;-65
2022/04/07 23:34:34;;;;;;;6.05;3.85;;;;;;;19.74;36.14;97757.69;5150423;27;20541;-67
2022/04/07 23:37:00;;;;;;;6.10;4.35;;;;;;;19.76;36.00;97753.75;5142104;27;20030;-66
2022/04/07 23:39:26;;;;;;;5.30;4.20;;;;;;;19.80;35.80;97760.28;5150668;27;20037;-66
2022/04/07 23:41:51;;;;;;;5.55;4.18;;;;;;;19.82;35.79;97750.16;5150492;27;20026;-65
2022/04/07 23:44:17;;;;;;;7.28;4.60;;;;;;;19.85;35.87;97740.84;5150025;27;20055;-65
2022/04/07 23:46:43;;;;;;;5.57;4.38;;;;;;;19.89;35.78;97742.06;5150671;27;20027;-65
2022/04/07 23:49:11;;;;;;;10.05;5.30;;;;;;;19.91;35.67;97729.22;5150381;27;20046;-64
2022/04/07 23:51:37;;;;;;;6.70;4.70;;;;;;;19.96;35.62;97737.44;5150276;27;20569;-65
2022/04/07 23:54:03;;;;;;;6.53;4.38;;;;;;;19.97;35.53;97732.88;5150425;27;20121;-66
2022/04/07 23:56:29;;;;;;;7.55;4.40;;;;;;;20.00;35.61;97731.63;5150465;27;20538;-67
2022/04/07 23:58:55;;;;;;;5.82;4.43;;;;;;;20.01;35.60;97734.06;5150321;27;20058;-67
